Time,TemperatureF,DewpointF,PressureIn,WindDirection,WindDirectionDegrees,WindSpeedMPH,WindSpeedGustMPH,Humidity,HourlyPrecipIn,Conditions,Clouds,dailyrainin,SoftwareType,DateUTC
2013-08-25 00:02:00,-999.0,-99.9,30.28,WSW,242,0.0,0.0,-999,-99.99,,,-99.99,,2013-08-25 04:02:00,
2013-08-25 00:14:00,72.0,70.0,30.28,WSW,242,0.0,0.0,93,0.00,,,0.00,,2013-08-25 04:14:00,
2013-08-25 00:25:00,72.0,70.0,30.28,WSW,242,0.0,0.0,93,0.00,,,0.00,,2013-08-25 04:25:00,
2013-08-25 00:54:00,71.0,69.0,30.29,WSW,242,0.0,0.0,92,0.00,,,0.00,,2013-08-25 04:54:00,
2013-08-25 01:23:00,70.0,67.0,30.29,WSW,242,0.0,0.0,90,0.00,,,0.00,,2013-08-25 05:23:00,
2013-08-25 01:52:00,70.0,68.0,30.29,WSW,242,0.0,0.0,92,0.00,,,0.00,,2013-08-25 05:52:00,
2013-08-25 02:22:00,69.0,67.0,30.29,WSW,242,0.0,0.0,92,0.00,,,0.00,,2013-08-25 06:22:00,
2013-08-25 02:52:00,69.0,67.0,30.29,WSW,242,0.0,0.0,92,0.00,,,0.00,,2013-08-25 06:52:00,
2013-08-25 03:22:00,69.0,66.0,30.29,WSW,242,0.0,0.0,90,0.00,,,0.00,,2013-08-25 07:22:00,
2013-08-25 03:52:00,68.0,67.0,30.30,WSW,242,0.0,0.0,95,0.00,,,0.00,,2013-08-25 07:52:00,
2013-08-25 04:21:00,67.0,66.0,30.31,WSW,242,0.0,0.0,96,0.00,,,0.00,,2013-08-25 08:21:00,
2013-08-25 04:52:00,67.0,66.0,30.31,WSW,242,0.0,0.0,97,0.00,,,0.00,,2013-08-25 08:52:00,
2013-08-25 05:22:00,67.0,66.0,30.32,WSW,242,0.0,0.0,98,0.00,,,0.00,,2013-08-25 09:22:00,
2013-08-25 05:55:00,67.0,66.0,30.32,WSW,242,0.0,0.0,98,0.00,,,0.00,,2013-08-25 09:55:00,
2013-08-25 06:23:00,67.0,66.0,30.33,WSW,242,0.0,0.0,98,0.00,,,0.00,,2013-08-25 10:23:00,
2013-08-25 06:53:00,66.0,65.0,30.34,WSW,242,0.0,0.0,98,0.00,,,0.00,,2013-08-25 10:53:00,
2013-08-25 07:22:00,65.0,64.0,30.34,WSW,242,0.0,0.0,97,0.00,,,0.00,,2013-08-25 11:22:00,
2013-08-25 07:52:00,65.0,64.0,30.36,WSW,242,0.0,0.0,96,0.00,,,0.00,,2013-08-25 11:52:00,
2013-08-25 08:22:00,64.0,63.0,30.37,WSW,242,0.0,0.0,98,0.00,,,0.00,,2013-08-25 12:22:00,
2013-08-25 08:52:00,65.0,64.0,30.38,WSW,242,0.0,0.0,98,0.00,,,0.00,,2013-08-25 12:52:00,
2013-08-25 09:22:00,66.0,65.0,30.39,WSW,242,0.0,0.0,98,0.00,,,0.00,,2013-08-25 13:22:00,
2013-08-25 09:52:00,67.0,66.0,30.40,WSW,242,0.0,0.0,98,0.00,,,0.00,,2013-08-25 13:52:00,
2013-08-25 10:26:00,68.0,67.0,30.40,WSW,242,0.0,0.0,95,0.00,,,0.00,,2013-08-25 14:26:00,
2013-08-25 10:52:00,70.0,63.0,30.40,WSW,242,0.0,0.0,79,0.00,,,0.00,,2013-08-25 14:52:00,
2013-08-25 11:23:00,72.0,60.0,30.40,SW,229,0.0,2.0,67,0.00,,,0.00,,2013-08-25 15:23:00,
2013-08-25 11:55:00,73.0,61.0,30.40,WSW,237,0.0,1.0,67,0.00,,,0.00,,2013-08-25 15:55:00,
2013-08-25 12:24:00,74.0,62.0,30.39,WNW,298,0.0,0.0,67,0.00,,,0.00,,2013-08-25 16:24:00,
2013-08-25 12:54:00,78.0,62.0,30.39,WNW,292,0.0,3.0,57,0.00,,,0.00,,2013-08-25 16:54:00,
2013-08-25 13:23:00,79.0,61.0,30.37,WNW,292,0.0,2.0,55,0.00,,,0.00,,2013-08-25 17:23:00,
2013-08-25 13:53:00,80.0,66.0,30.35,West,263,0.0,1.0,62,0.00,,,0.00,,2013-08-25 17:53:00,
2013-08-25 14:22:00,80.0,60.0,30.34,WSW,252,0.0,1.0,51,0.00,,,0.00,,2013-08-25 18:22:00,
2013-08-25 14:52:00,81.0,66.0,30.34,WSW,252,0.0,2.0,60,0.00,,,0.00,,2013-08-25 18:52:00,
2013-08-25 15:12:00,82.0,64.0,30.34,WSW,246,0.0,2.0,54,0.00,,,0.00,,2013-08-25 19:12:00,
2013-08-25 15:22:00,81.0,64.0,30.32,WSW,246,0.0,1.0,57,0.00,,,0.00,,2013-08-25 19:22:00,
2013-08-25 15:53:00,82.0,63.0,30.31,West,272,0.0,1.0,53,0.00,,,0.00,,2013-08-25 19:53:00,
2013-08-25 16:12:00,82.0,65.0,30.31,North,5,0.0,2.0,56,0.00,,,0.00,,2013-08-25 20:12:00,
2013-08-25 16:23:00,83.0,64.0,30.30,SSW,206,1.0,4.0,53,0.00,,,0.00,,2013-08-25 20:23:00,
2013-08-25 16:53:00,82.0,61.0,30.30,West,275,0.0,2.0,50,0.00,,,0.00,,2013-08-25 20:53:00,
2013-08-25 17:22:00,83.0,67.0,30.29,West,275,0.0,1.0,58,0.00,,,0.00,,2013-08-25 21:22:00,
2013-08-25 17:55:00,82.0,66.0,30.29,West,275,0.0,0.0,58,0.00,,,0.00,,2013-08-25 21:55:00,
2013-08-25 18:24:00,81.0,66.0,30.29,West,275,0.0,0.0,60,0.00,,,0.00,,2013-08-25 22:24:00,
2013-08-25 18:53:00,80.0,67.0,30.29,West,275,0.0,1.0,65,0.00,,,0.00,,2013-08-25 22:53:00,
2013-08-25 19:12:00,80.0,68.0,30.29,West,275,0.0,0.0,66,0.00,,,0.00,,2013-08-25 23:12:00,
2013-08-25 19:23:00,79.0,66.0,30.29,West,275,0.0,0.0,65,0.00,,,0.00,,2013-08-25 23:23:00,
2013-08-25 19:53:00,78.0,67.0,30.29,West,275,0.0,0.0,69,0.00,,,0.00,,2013-08-25 23:53:00,
2013-08-25 20:22:00,76.0,66.0,30.29,West,275,0.0,0.0,72,0.00,,,0.00,,2013-08-26 00:22:00,
2013-08-25 20:42:00,75.0,67.0,30.29,West,275,0.0,0.0,75,0.00,,,0.00,,2013-08-26 00:42:00,
2013-08-25 20:52:00,74.0,66.0,30.30,West,275,0.0,0.0,75,0.00,,,0.00,,2013-08-26 00:52:00,
2013-08-25 21:11:00,74.0,66.0,30.30,West,275,0.0,0.0,75,0.00,,,0.00,,2013-08-26 01:11:00,
2013-08-25 21:22:00,73.0,66.0,30.31,West,275,0.0,0.0,78,0.00,,,0.00,,2013-08-26 01:22:00,
2013-08-25 21:42:00,72.0,65.0,30.31,West,275,0.0,0.0,79,0.00,,,0.00,,2013-08-26 01:42:00,
2013-08-25 21:52:00,73.0,66.0,30.31,West,275,0.0,0.0,80,0.00,,,0.00,,2013-08-26 01:52:00,
2013-08-25 22:22:00,73.0,66.0,30.32,West,275,0.0,0.0,80,0.00,,,0.00,,2013-08-26 02:22:00,
2013-08-25 22:42:00,72.0,66.0,30.32,West,275,0.0,0.0,81,0.00,,,0.00,,2013-08-26 02:42:00,
2013-08-25 22:52:00,73.0,66.0,30.32,West,275,0.0,0.0,79,0.00,,,0.00,,2013-08-26 02:52:00,
2013-08-25 23:22:00,73.0,66.0,30.34,West,275,0.0,0.0,80,0.00,,,0.00,,2013-08-26 03:22:00,
2013-08-25 23:56:00,72.0,65.0,30.34,West,276,0.0,0.0,78,0.00,,,0.00,,2013-08-26 03:56:00,